Lamphun, Thailand
Current Conditions -  °F | °C
As of 1:30 AM on Tuesday 27 Jan 2015 (Local Time) from VTCC Reporting Station
Few Clouds Few Clouds  
Wind Chill: 64°   Ceiling: Unl
Heat Index: 64°   Visibility: 5mi
Dew Point: 57°   Wind: 0mph
Humidity: 77%   Direction: NA
Pressure: 30"   Gusts: NA
Location:  18.5°N, 99.08°E
Report Text: VTCC 261830Z 00000KT 8000 FEW040 18/14 Q1016 A3002 NOSIG
Loading
Personal Weather Stations






























Interactive Weather Map New forecast layout! Learn more

10-Day Weather Forecast

Advertisements
Track Severe Weather on mobile